Oakvale, West Virginia
Current Conditions -  °F | °C
As of 2:52 PM on Thursday 30 Oct 2014 (Local Time) from KBLF Reporting Station
Clear Clear  
Wind Chill: 50°   Ceiling: Unl
Heat Index: 50°   Visibility: 10mi
Dew Point: 34°   Wind: 6mph
Humidity: 54%   Direction: 300°WNW
Pressure: 30.05"   Gusts: NA
Location:  37.33°N, 80.96°W
Report Text: KBLF 301852Z AUTO 30005KT 10SM CLR 10/01 A3005 RMK AO2 SLP171 T01000011
Loading
Personal Weather Stations






























Interactive Weather Map
Tropical Storm Tracking
New forecast layout! Learn more

10-Day Weather Forecast

Advertisements
Track Severe Weather on mobile